Time;durP1;ratioP1;P1;durP2;ratioP2;P2;SDS_P1;SDS_P2;PMS_P1;PMS_P2;Temp;Humidity;BMP_temperature;BMP_pressure;BME280_temperature;BME280_humidity;BME280_pressure;Samples;Min_cycle;Max_cycle;Signal;HPM_P1;HPM_P2
2021/06/17 00:02:15;;;;;;;9.48;1.98;;;;;;;11.48;81.62;100665.00;5075144;28;20029;-85
2021/06/17 00:04:41;;;;;;;8.48;1.90;;;;;;;11.44;81.36;100659.16;5074632;28;20031;-83
2021/06/17 00:07:06;;;;;;;7.57;1.88;;;;;;;11.37;81.67;100669.81;5102222;28;20020;-85
2021/06/17 00:09:32;;;;;;;10.35;2.28;;;;;;;11.31;81.98;100659.78;5058716;28;20028;-85
2021/06/17 00:12:00;;;;;;;5.55;1.90;;;;;;;11.32;81.97;100657.94;5052757;28;20021;-84
2021/06/17 00:14:27;;;;;;;6.22;1.83;;;;;;;11.31;82.47;100670.56;5062192;28;20025;-85
2021/06/17 00:16:53;;;;;;;9.30;2.05;;;;;;;11.29;82.37;100669.91;5106051;28;20545;-84
2021/06/17 00:19:18;;;;;;;10.32;1.85;;;;;;;11.32;82.42;100664.16;5074849;28;20021;-85
2021/06/17 00:21:44;;;;;;;8.30;1.83;;;;;;;11.28;82.52;100652.09;5050511;28;20025;-85
2021/06/17 00:24:09;;;;;;;5.30;1.63;;;;;;;11.26;82.09;100648.75;5065475;28;20020;-83
2021/06/17 00:26:35;;;;;;;7.32;2.08;;;;;;;11.26;82.51;100659.50;5067900;28;20383;-84
2021/06/17 00:29:00;;;;;;;12.98;2.20;;;;;;;11.03;83.01;100618.34;5072967;28;20055;-85
2021/06/17 00:31:26;;;;;;;7.70;1.60;;;;;;;11.22;82.92;100652.84;5067829;28;20447;-84
2021/06/17 00:33:51;;;;;;;5.78;1.70;;;;;;;11.14;82.38;100639.44;5057371;28;20108;-84
2021/06/17 00:36:17;;;;;;;8.40;1.90;;;;;;;11.23;82.82;100641.03;5058785;28;20029;-84
2021/06/17 00:38:43;;;;;;;7.40;2.35;;;;;;;11.22;83.17;100645.59;5058222;28;20054;-85
2021/06/17 00:41:09;;;;;;;11.98;2.22;;;;;;;11.29;82.83;100664.53;5073995;28;20024;-85
2021/06/17 00:43:34;;;;;;;6.45;1.42;;;;;;;11.27;83.19;100655.78;5057210;28;20043;-84
2021/06/17 00:45:59;;;;;;;8.30;2.13;;;;;;;11.23;83.01;100667.94;5076353;28;20485;-85
2021/06/17 00:48:25;;;;;;;6.03;1.60;;;;;;;11.18;83.35;100659.59;5073783;28;20040;-85
2021/06/17 00:50:53;;;;;;;6.13;1.65;;;;;;;11.21;83.89;100653.84;5048905;28;20094;-85
2021/06/17 00:53:26;;;;;;;6.70;1.88;;;;;;;11.14;83.16;100642.97;5073643;28;20036;-84
2021/06/17 00:55:51;;;;;;;5.68;1.35;;;;;;;11.21;82.87;100649.28;5048063;28;20035;-84
2021/06/17 00:58:17;;;;;;;7.45;1.83;;;;;;;11.21;83.02;100651.97;5061862;28;20025;-85
2021/06/17 01:00:42;;;;;;;4.60;1.52;;;;;;;11.16;83.05;100642.78;5073336;28;20056;-85
2021/06/17 01:03:08;;;;;;;7.22;1.52;;;;;;;11.03;83.09;100629.09;5071188;28;20101;-85
2021/06/17 01:05:34;;;;;;;8.75;1.80;;;;;;;11.18;83.06;100673.88;5067476;28;20020;-85
2021/06/17 01:08:03;;;;;;;6.32;1.90;;;;;;;11.16;83.23;100670.53;5054329;28;20361;-85
2021/06/17 01:10:43;;;;;;;6.43;1.50;;;;;;;11.08;83.33;100667.91;5068048;28;20075;-84
2021/06/17 01:13:47;;;;;;;10.75;2.17;;;;;;;11.08;83.62;100673.28;5081323;28;20525;-84
2021/06/17 01:16:19;;;;;;;9.82;1.45;;;;;;;11.11;83.72;100672.09;5072295;28;20111;-88
2021/06/17 01:18:54;;;;;;;8.45;1.70;;;;;;;11.09;83.56;100668.75;5057111;28;20031;-85
2021/06/17 01:21:42;;;;;;;5.40;1.63;;;;;;;11.12;83.86;100679.16;5061995;28;20087;-84
2021/06/17 01:24:41;;;;;;;6.68;1.70;;;;;;;11.13;83.58;100665.50;5050381;28;20107;-87
2021/06/17 01:27:25;;;;;;;8.35;1.85;;;;;;;11.14;83.37;100669.88;5072887;28;20028;-86
2021/06/17 01:29:54;;;;;;;7.50;1.85;;;;;;;11.15;83.16;100681.47;5072394;28;20031;-87
2021/06/17 01:32:21;;;;;;;11.02;2.05;;;;;;;11.10;83.57;100676.63;5065412;28;20027;-87
2021/06/17 01:34:49;;;;;;;5.18;1.90;;;;;;;11.11;83.48;100674.78;5064780;28;20021;-86
2021/06/17 01:37:16;;;;;;;4.90;1.58;;;;;;;11.09;83.58;100671.47;5074011;28;20065;-86
2021/06/17 01:39:43;;;;;;;5.32;1.80;;;;;;;11.02;83.82;100667.81;5049181;28;20397;-86
2021/06/17 01:42:09;;;;;;;6.03;1.70;;;;;;;10.98;83.81;100656.56;5081123;28;20028;-86
2021/06/17 01:44:35;;;;;;;4.57;1.35;;;;;;;10.98;83.80;100659.25;5054884;28;20066;-87
2021/06/17 01:47:23;;;;;;;8.77;2.08;;;;;;;11.03;83.62;100664.91;5072096;28;20017;-86
2021/06/17 01:50:48;;;;;;;6.13;1.50;;;;;;;11.04;83.89;100673.84;5018099;28;20532;-86
2021/06/17 14:36:27;;;;;;;4.57;1.10;;;;;;;21.20;40.14;101177.28;5029767;28;20120;-79
2021/06/17 14:38:52;;;;;;;3.38;0.73;;;;;;;21.28;40.23;101173.38;5004311;28;20489;-80
2021/06/17 14:41:18;;;;;;;4.93;0.82;;;;;;;20.33;41.54;101161.31;4996276;28;20021;-78
2021/06/17 14:43:43;;;;;;;4.18;0.95;;;;;;;19.79;42.71;101173.94;5010384;28;20025;-78
2021/06/17 14:46:10;;;;;;;2.83;1.10;;;;;;;19.28;43.51;101167.69;5007311;28;20056;-78
2021/06/17 14:48:36;;;;;;;6.28;1.17;;;;;;;19.26;43.86;101178.00;4994229;28;20120;-79
2021/06/17 14:51:02;;;;;;;6.13;1.20;;;;;;;19.63;44.46;101169.88;5011311;28;20022;-78
2021/06/17 14:53:27;;;;;;;4.65;1.05;;;;;;;19.64;44.30;101171.56;5004871;28;20367;-79
2021/06/17 14:55:52;;;;;;;4.70;1.23;;;;;;;19.91;43.24;101169.41;4997459;28;20451;-79
2021/06/17 14:58:18;;;;;;;3.83;1.10;;;;;;;20.48;42.38;101168.25;5008822;28;20048;-78
2021/06/17 15:00:43;;;;;;;5.07;1.10;;;;;;;20.72;42.64;101174.66;5012059;28;20045;-79
2021/06/17 15:03:09;;;;;;;3.50;1.02;;;;;;;21.00;42.49;101169.38;5002793;28;20036;-78
2021/06/17 15:05:34;;;;;;;3.85;1.30;;;;;;;21.45;41.11;101173.50;4992444;28;20064;-81
2021/06/17 15:08:06;;;;;;;3.80;0.90;;;;;;;21.85;40.13;101178.22;5007716;28;20075;-80
2021/06/17 15:10:32;;;;;;;3.80;1.20;;;;;;;21.37;40.10;101184.78;5034175;28;20025;-81
2021/06/17 15:12:58;;;;;;;3.47;1.10;;;;;;;21.64;40.59;101180.50;5003605;28;20059;-83
2021/06/17 15:15:23;;;;;;;4.53;1.00;;;;;;;21.94;39.37;101182.28;5015381;28;20037;-81
2021/06/17 15:17:49;;;;;;;3.30;0.80;;;;;;;21.80;39.06;101178.94;5002804;28;20952;-80
2021/06/17 15:20:15;;;;;;;6.20;1.10;;;;;;;21.48;38.66;101194.91;5018714;28;20114;-81
2021/06/17 15:22:40;;;;;;;5.78;1.30;;;;;;;21.35;39.33;101185.00;5016013;28;20389;-81
2021/06/17 15:25:06;;;;;;;3.30;0.80;;;;;;;21.48;40.28;101197.66;5002030;28;20022;-82
2021/06/17 15:27:32;;;;;;;3.22;0.95;;;;;;;21.82;40.05;101206.09;5018751;28;20017;-82
2021/06/17 15:29:58;;;;;;;5.78;1.40;;;;;;;22.27;39.21;101206.25;5019642;28;20464;-81
2021/06/17 15:32:24;;;;;;;3.28;1.50;;;;;;;22.46;38.50;101201.44;5033113;28;20057;-82
2021/06/17 15:34:49;;;;;;;7.20;1.80;;;;;;;22.74;37.05;101210.75;4996455;28;20044;-81
2021/06/17 15:37:15;;;;;;;7.40;1.30;;;;;;;21.86;38.32;101224.53;5019242;28;20448;-81
2021/06/17 15:39:41;;;;;;;3.83;1.10;;;;;;;21.05;38.67;101213.25;5019043;28;20030;-81
2021/06/17 15:42:07;;;;;;;3.83;1.17;;;;;;;20.40;39.65;101224.91;5020503;28;20408;-81
2021/06/17 15:44:32;;;;;;;4.00;1.80;;;;;;;19.77;41.19;101219.75;5018081;28;20414;-81
2021/06/17 15:46:59;;;;;;;4.55;1.60;;;;;;;19.37;42.64;101211.03;5015686;28;20017;-81
2021/06/17 15:49:24;;;;;;;2.80;1.38;;;;;;;19.29;43.28;101223.06;5017478;28;20028;-82
2021/06/17 15:51:52;;;;;;;3.85;1.85;;;;;;;19.26;44.44;101229.78;5013891;28;20029;-82
2021/06/17 15:54:22;;;;;;;5.60;1.52;;;;;;;19.63;42.98;101232.63;5012108;28;20018;-81
2021/06/17 15:56:49;;;;;;;3.72;1.15;;;;;;;20.56;39.67;101218.00;5010977;28;20025;-81
2021/06/17 15:59:14;;;;;;;6.63;1.70;;;;;;;21.30;38.00;101218.56;5019852;28;20029;-81
2021/06/17 16:01:40;;;;;;;3.55;1.60;;;;;;;21.76;36.86;101234.44;5020322;28;20476;-82
2021/06/17 16:04:05;;;;;;;4.53;1.42;;;;;;;21.32;37.22;101231.97;5036090;28;20044;-82
2021/06/17 16:06:31;;;;;;;6.00;2.25;;;;;;;20.59;38.89;101214.78;5002506;28;20021;-81
2021/06/17 16:08:56;;;;;;;4.55;1.70;;;;;;;20.80;38.99;101235.31;5007501;28;20439;-82
2021/06/17 16:11:22;;;;;;;4.22;1.80;;;;;;;20.70;38.60;101223.28;5020070;28;20438;-83
2021/06/17 16:13:47;;;;;;;5.75;1.98;;;;;;;20.73;39.16;101242.75;5026054;28;20142;-81
2021/06/17 16:16:13;;;;;;;3.97;1.50;;;;;;;20.82;39.64;101256.94;5036767;28;20037;-81
2021/06/17 16:18:38;;;;;;;5.15;2.03;;;;;;;20.34;40.35;101255.00;5005114;28;20040;-83
2021/06/17 16:21:07;;;;;;;6.78;2.92;;;;;;;19.94;41.09;101258.19;5016338;28;20034;-81
2021/06/17 16:23:33;;;;;;;4.55;2.20;;;;;;;19.50;42.07;101260.03;4998159;28;20054;-81
2021/06/17 16:25:58;;;;;;;5.25;1.92;;;;;;;19.16;43.31;101264.06;5023426;28;20086;-81
2021/06/17 16:28:24;;;;;;;6.03;2.05;;;;;;;18.54;44.11;101242.81;5015122;28;20393;-81
2021/06/17 16:30:49;;;;;;;7.82;2.08;;;;;;;18.40;44.79;101261.09;4998452;28;20123;-81
2021/06/17 16:33:15;;;;;;;5.72;1.60;;;;;;;18.08;44.16;101264.75;4999036;28;20018;-79
2021/06/17 16:35:40;;;;;;;11.48;2.40;;;;;;;17.76;44.43;101279.00;5006048;28;20891;-80
2021/06/17 16:38:07;;;;;;;6.15;1.80;;;;;;;17.63;44.84;101278.19;5024169;28;20409;-78
2021/06/17 16:40:32;;;;;;;3.85;1.90;;;;;;;17.56;45.49;101265.41;5012359;28;20044;-77
2021/06/17 16:42:58;;;;;;;5.53;2.25;;;;;;;17.63;45.83;101280.91;5018786;28;20078;-84
2021/06/17 16:45:23;;;;;;;5.07;1.95;;;;;;;17.52;45.07;101272.31;4999677;28;20052;-83
2021/06/17 16:47:49;;;;;;;5.20;1.98;;;;;;;17.61;44.83;101277.56;5023298;28;20049;-83
2021/06/17 16:50:15;;;;;;;6.05;2.15;;;;;;;17.46;44.65;101285.91;5018032;28;20017;-84
2021/06/17 16:52:44;;;;;;;7.93;2.20;;;;;;;17.63;44.49;101295.34;5003778;28;20025;-84
2021/06/17 16:55:10;;;;;;;5.15;2.10;;;;;;;17.71;44.58;101295.13;5019005;28;20038;-84
2021/06/17 16:57:36;;;;;;;5.00;2.72;;;;;;;17.62;44.48;101277.31;4992007;28;20028;-84
2021/06/17 17:00:06;;;;;;;4.40;2.80;;;;;;;18.42;44.45;101294.38;5017403;28;20026;-83
2021/06/17 17:02:34;;;;;;;8.10;2.83;;;;;;;18.23;43.71;101293.41;5011452;28;20025;-83
2021/06/17 17:05:00;;;;;;;5.45;2.85;;;;;;;18.17;44.29;101299.69;4992069;28;20088;-83
2021/06/17 17:07:25;;;;;;;5.53;2.80;;;;;;;17.90;43.84;101288.00;5010959;28;20036;-84
2021/06/17 17:09:51;;;;;;;7.38;2.95;;;;;;;17.65;44.04;101309.56;5019394;28;20021;-84
2021/06/17 17:12:16;;;;;;;4.35;2.55;;;;;;;17.29;44.44;101280.03;5013666;28;20032;-84
2021/06/17 17:14:42;;;;;;;7.22;3.47;;;;;;;17.82;44.09;101292.84;5007142;28;20025;-82
2021/06/17 17:17:07;;;;;;;8.48;3.72;;;;;;;19.53;41.09;101305.97;5012646;28;20468;-83
2021/06/17 17:19:33;;;;;;;5.07;2.97;;;;;;;20.62;38.56;101295.47;5001043;28;20099;-84
2021/06/17 17:21:58;;;;;;;8.60;3.78;;;;;;;21.48;36.29;101307.09;5029565;28;20029;-84
2021/06/17 17:24:24;;;;;;;7.82;3.47;;;;;;;20.08;38.35;101317.03;5009145;28;20029;-85
2021/06/17 17:26:49;;;;;;;6.68;3.50;;;;;;;20.24;38.33;101329.25;5006065;28;20819;-84
2021/06/17 17:29:15;;;;;;;5.60;3.63;;;;;;;19.76;38.51;101324.47;4988138;28;20045;-83
2021/06/17 17:31:41;;;;;;;7.93;3.85;;;;;;;19.02;39.45;101320.53;5005743;28;20091;-84
2021/06/17 17:34:07;;;;;;;8.35;3.60;;;;;;;18.43;40.98;101311.56;4995901;28;20029;-84
2021/06/17 17:36:32;;;;;;;8.10;3.33;;;;;;;17.91;42.31;101325.03;5004407;28;20540;-84
2021/06/17 17:39:00;;;;;;;8.68;3.70;;;;;;;18.32;41.96;101326.66;4987322;28;20493;-84
2021/06/17 17:41:25;;;;;;;7.72;4.43;;;;;;;18.13;42.41;101333.81;4997966;28;20033;-84
2021/06/17 17:43:51;;;;;;;6.82;3.63;;;;;;;18.95;40.81;101326.06;5021207;28;20028;-84
2021/06/17 17:46:16;;;;;;;8.57;4.38;;;;;;;18.32;41.43;101323.94;4986030;28;20021;-84
2021/06/17 17:48:41;;;;;;;9.77;3.97;;;;;;;17.72;42.71;101339.47;5014778;28;20484;-84
2021/06/17 17:51:07;;;;;;;5.97;3.88;;;;;;;17.22;44.17;101336.25;5003137;28;20157;-84
2021/06/17 17:53:32;;;;;;;8.30;4.30;;;;;;;16.92;45.25;101325.75;4988155;28;20029;-84
2021/06/17 17:55:58;;;;;;;9.55;4.30;;;;;;;16.83;45.33;101329.66;5008244;28;20151;-84
2021/06/17 17:58:24;;;;;;;10.88;4.45;;;;;;;16.80;45.47;101347.19;5002021;28;20086;-86
2021/06/17 18:00:49;;;;;;;7.32;4.43;;;;;;;16.75;45.33;101321.66;5007954;28;20033;-85
2021/06/17 18:03:15;;;;;;;6.63;4.07;;;;;;;16.74;45.64;101342.56;4996681;28;20026;-83
2021/06/17 18:05:42;;;;;;;9.10;4.75;;;;;;;18.12;42.52;101347.63;4993638;28;20025;-83
2021/06/17 18:08:08;;;;;;;5.80;4.47;;;;;;;19.26;39.86;101327.94;5009316;28;20036;-85
2021/06/17 18:10:40;;;;;;;7.80;4.18;;;;;;;19.04;39.95;101342.97;5003017;28;20025;-84
2021/06/17 18:13:07;;;;;;;7.05;4.40;;;;;;;18.32;41.14;101350.34;5012075;28;20549;-83
2021/06/17 18:15:34;;;;;;;15.30;5.13;;;;;;;17.63;42.12;101343.44;5017096;28;20858;-84
2021/06/17 18:17:59;;;;;;;9.60;4.30;;;;;;;17.36;43.40;101351.56;5008045;28;20087;-83
2021/06/17 18:20:26;;;;;;;7.82;4.53;;;;;;;17.25;44.10;101365.75;5013822;28;20029;-83
2021/06/17 18:22:52;;;;;;;11.90;4.65;;;;;;;17.08;44.68;101363.41;5017705;28;20031;-83
2021/06/17 18:25:17;;;;;;;10.48;4.25;;;;;;;16.69;45.73;101316.00;5010834;28;20026;-84
2021/06/17 18:27:43;;;;;;;6.45;4.00;;;;;;;16.95;45.47;101366.06;5021582;28;20022;-84
2021/06/17 18:30:10;;;;;;;8.90;4.65;;;;;;;16.85;45.50;101366.44;5003844;28;20112;-83
2021/06/17 18:32:36;;;;;;;8.25;4.10;;;;;;;16.91;46.11;101371.09;4990996;28;20045;-85
2021/06/17 18:35:03;;;;;;;9.65;4.85;;;;;;;16.82;46.07;101361.41;4993617;28;20648;-85
2021/06/17 18:37:30;;;;;;;10.43;5.45;;;;;;;16.76;45.99;101380.38;4992553;28;20014;-83
2021/06/17 18:39:55;;;;;;;8.80;4.93;;;;;;;16.65;46.12;101382.63;4993229;28;20339;-84
2021/06/17 18:42:22;;;;;;;8.98;4.90;;;;;;;16.58;46.60;101389.88;4991368;28;20055;-84
2021/06/17 18:44:49;;;;;;;12.02;5.57;;;;;;;16.59;46.79;101393.44;5011373;28;20092;-84
2021/06/17 18:47:14;;;;;;;7.95;4.80;;;;;;;16.55;46.38;101393.00;5007020;28;20020;-84
2021/06/17 18:49:41;;;;;;;9.30;5.10;;;;;;;16.45;46.85;101398.78;4994949;28;20029;-83
2021/06/17 18:52:07;;;;;;;8.23;5.75;;;;;;;16.44;46.96;101399.00;4993058;28;20025;-84
2021/06/17 18:54:36;;;;;;;10.07;5.18;;;;;;;16.42;47.13;101390.22;5006952;28;20914;-84
2021/06/17 18:57:28;;;;;;;7.32;4.78;;;;;;;16.42;47.14;101403.78;5003505;28;20088;-83
2021/06/17 18:59:55;;;;;;;7.88;5.20;;;;;;;16.24;47.32;101390.69;5005591;28;20050;-87
2021/06/17 19:02:21;;;;;;;9.60;5.25;;;;;;;16.15;47.46;101406.31;4997379;28;20046;-84
2021/06/17 19:04:52;;;;;;;9.13;5.57;;;;;;;16.08;48.01;101407.28;5001972;28;20152;-85
2021/06/17 19:07:19;;;;;;;12.40;5.85;;;;;;;15.93;47.64;101402.78;4993024;28;20014;-82
2021/06/17 19:09:45;;;;;;;7.95;4.72;;;;;;;15.85;48.38;101408.34;4989675;28;20022;-84
2021/06/17 19:12:11;;;;;;;9.25;5.13;;;;;;;15.61;48.45;101409.53;4993463;28;20017;-86
2021/06/17 19:14:37;;;;;;;8.82;5.40;;;;;;;15.43;48.29;101395.56;5011060;28;20444;-84
2021/06/17 19:17:03;;;;;;;11.05;5.75;;;;;;;15.57;48.31;101427.22;5009536;28;20100;-82
2021/06/17 19:19:31;;;;;;;9.30;5.20;;;;;;;15.52;47.91;101427.78;5012267;28;20039;-83
2021/06/17 19:21:57;;;;;;;7.38;5.22;;;;;;;15.56;47.88;101430.97;5001146;28;20053;-84
2021/06/17 19:24:22;;;;;;;10.40;6.25;;;;;;;15.36;47.71;101411.78;5003983;28;20065;-86
2021/06/17 19:26:48;;;;;;;10.32;5.57;;;;;;;15.33;47.82;101426.53;5011479;28;20108;-87
2021/06/17 19:29:14;;;;;;;10.52;5.15;;;;;;;15.41;48.13;101444.56;4982132;28;20032;-84
2021/06/17 19:31:41;;;;;;;12.35;5.30;;;;;;;15.26;48.54;101441.88;4993007;28;20080;-84
2021/06/17 19:34:06;;;;;;;8.68;5.10;;;;;;;15.01;48.70;101417.00;4998627;28;20030;-85
2021/06/17 19:36:32;;;;;;;9.50;5.55;;;;;;;15.22;48.71;101458.72;4985396;28;20032;-84
2021/06/17 19:38:58;;;;;;;11.55;6.57;;;;;;;14.98;48.85;101432.75;4990323;28;20113;-82
2021/06/17 19:41:24;;;;;;;8.82;5.53;;;;;;;15.05;48.70;101466.19;4988370;28;20056;-83
2021/06/17 19:43:49;;;;;;;8.50;5.25;;;;;;;14.77;48.83;101437.09;5010417;28;20048;-85
2021/06/17 19:46:16;;;;;;;9.50;5.85;;;;;;;14.69;48.72;101446.13;5019963;28;20462;-86
2021/06/17 19:48:43;;;;;;;14.30;5.10;;;;;;;14.70;48.61;101479.44;5007997;28;20032;-84
2021/06/17 19:51:12;;;;;;;9.43;4.90;;;;;;;14.34;48.75;101452.22;4992616;28;20886;-84
2021/06/17 19:53:40;;;;;;;11.63;5.32;;;;;;;14.48;48.91;101490.13;5012052;28;20032;-84
2021/06/17 19:56:16;;;;;;;7.75;5.18;;;;;;;14.44;49.02;101486.09;4992633;28;20113;-84
2021/06/17 19:58:41;;;;;;;8.73;5.28;;;;;;;14.27;49.48;101479.16;5009480;28;20022;-85
2021/06/17 20:01:08;;;;;;;8.30;4.95;;;;;;;14.24;49.99;101483.06;4991940;28;20025;-85
2021/06/17 20:03:36;;;;;;;11.23;4.97;;;;;;;14.08;49.97;101458.88;4997945;28;20049;-83
2021/06/17 20:06:02;;;;;;;9.23;5.38;;;;;;;14.23;50.18;101500.31;4999370;28;20018;-84
2021/06/17 20:08:29;;;;;;;9.57;5.13;;;;;;;14.12;50.01;101478.28;4994535;28;20129;-83
2021/06/17 20:10:54;;;;;;;9.85;5.03;;;;;;;14.13;50.07;101507.00;5010376;28;20029;-85
2021/06/17 20:13:20;;;;;;;10.85;4.97;;;;;;;14.06;50.60;101515.00;5005909;28;20139;-84
2021/06/17 20:15:45;;;;;;;8.77;5.50;;;;;;;13.69;51.11;101462.53;5006430;28;20022;-84
2021/06/17 20:18:11;;;;;;;10.50;5.53;;;;;;;13.80;51.89;101501.81;5011414;28;20030;-84
2021/06/17 20:20:37;;;;;;;8.35;5.13;;;;;;;13.62;52.28;101500.22;5001051;28;20371;-83
2021/06/17 20:23:03;;;;;;;12.82;5.18;;;;;;;13.80;51.85;101524.28;5012805;28;20579;-85
2021/06/17 20:25:31;;;;;;;9.60;4.50;;;;;;;13.84;51.96;101535.59;5006339;28;20029;-85
2021/06/17 20:27:57;;;;;;;13.68;6.05;;;;;;;13.76;52.95;101535.63;5004666;28;20622;-85
2021/06/17 20:30:26;;;;;;;11.73;4.40;;;;;;;13.34;54.15;101480.97;4985073;28;20025;-84
2021/06/17 20:32:52;;;;;;;12.30;6.15;;;;;;;13.38;55.30;101524.69;4994104;28;20472;-85
2021/06/17 20:35:18;;;;;;;11.57;5.85;;;;;;;13.46;56.27;101545.41;5010048;28;20028;-85
2021/06/17 20:37:44;;;;;;;11.18;5.28;;;;;;;13.43;56.23;101551.16;5011911;28;20017;-84
2021/06/17 20:40:11;;;;;;;8.13;5.32;;;;;;;13.38;56.28;101562.50;5005353;28;20029;-84
2021/06/17 20:42:36;;;;;;;8.13;5.10;;;;;;;13.25;55.99;101543.25;4989137;28;20033;-84
2021/06/17 20:45:03;;;;;;;10.23;5.30;;;;;;;13.15;55.71;101538.06;4994558;28;20027;-85
2021/06/17 20:47:29;;;;;;;12.82;4.95;;;;;;;13.22;55.87;101552.56;4992664;28;20375;-84
2021/06/17 20:49:54;;;;;;;12.90;5.65;;;;;;;13.22;56.03;101562.53;4999560;28;20026;-84
2021/06/17 20:52:19;;;;;;;12.30;5.35;;;;;;;13.08;56.56;101564.09;5022168;28;20080;-83
2021/06/17 20:54:45;;;;;;;10.23;5.03;;;;;;;13.02;56.71;101570.16;5010302;28;20389;-86
2021/06/17 20:57:10;;;;;;;9.60;5.22;;;;;;;13.02;56.60;101579.13;4991391;28;20031;-83
2021/06/17 20:59:36;;;;;;;11.20;5.18;;;;;;;13.01;56.58;101579.28;4989734;28;20402;-85
2021/06/17 21:02:02;;;;;;;11.23;5.25;;;;;;;12.84;57.51;101565.81;5008352;28;20032;-83
2021/06/17 21:04:27;;;;;;;10.02;5.30;;;;;;;12.74;58.10;101568.69;5006602;28;20050;-83
2021/06/17 21:06:54;;;;;;;10.60;5.72;;;;;;;12.76;58.20;101590.94;5011494;28;20021;-85
2021/06/17 21:09:19;;;;;;;15.52;5.47;;;;;;;12.41;59.20;101546.28;5011068;28;20641;-84
2021/06/17 21:11:45;;;;;;;13.77;6.43;;;;;;;12.57;59.36;101585.91;5002929;28;20056;-84
2021/06/17 21:14:10;;;;;;;14.40;6.75;;;;;;;12.48;59.93;101586.91;4997405;28;20156;-82
2021/06/17 21:16:36;;;;;;;13.65;6.50;;;;;;;12.56;60.22;101595.00;5002682;28;20018;-85
2021/06/17 21:19:02;;;;;;;13.00;6.75;;;;;;;12.52;60.32;101594.50;4989030;28;20026;-85
2021/06/17 21:21:28;;;;;;;12.15;6.18;;;;;;;12.54;60.08;101605.09;4987028;28;20072;-85
2021/06/17 21:23:53;;;;;;;12.00;5.78;;;;;;;12.32;60.26;101567.00;5025896;28;20108;-83
2021/06/17 21:26:19;;;;;;;11.65;6.13;;;;;;;12.26;60.24;101561.44;5005200;28;20026;-84
2021/06/17 21:28:44;;;;;;;11.98;6.07;;;;;;;12.41;59.95;101594.84;5001579;28;20032;-83
2021/06/17 21:31:10;;;;;;;12.68;6.55;;;;;;;12.25;59.95;101579.50;5005743;28;20070;-86
2021/06/17 21:33:35;;;;;;;12.70;5.65;;;;;;;12.09;60.28;101574.91;4986591;28;20029;-84
2021/06/17 21:36:01;;;;;;;12.68;5.70;;;;;;;12.12;60.87;101578.25;5003858;28;20025;-83
2021/06/17 21:38:27;;;;;;;13.35;6.15;;;;;;;12.10;61.36;101592.75;5001015;28;20405;-84
2021/06/17 21:40:53;;;;;;;9.45;5.20;;;;;;;12.07;60.73;101590.41;5007270;28;20040;-86
2021/06/17 21:43:20;;;;;;;11.68;5.07;;;;;;;12.03;61.63;101593.59;4990323;28;20038;-86
2021/06/17 21:45:46;;;;;;;11.35;5.43;;;;;;;12.03;62.41;101612.44;5003797;28;20102;-86
2021/06/17 21:48:12;;;;;;;13.65;5.50;;;;;;;11.80;62.87;101571.75;5022595;28;20474;-85
2021/06/17 21:50:38;;;;;;;12.68;5.32;;;;;;;11.83;63.63;101604.63;4991929;28;20164;-85
2021/06/17 21:53:04;;;;;;;10.43;5.45;;;;;;;11.75;63.64;101610.00;5004650;28;20021;-84
2021/06/17 21:55:29;;;;;;;7.90;5.05;;;;;;;11.59;64.67;101582.97;5004814;28;20474;-85
2021/06/17 21:57:55;;;;;;;8.95;5.47;;;;;;;11.49;64.27;101575.03;5004388;28;20033;-84
2021/06/17 22:00:23;;;;;;;11.70;5.50;;;;;;;11.57;64.69;101598.47;5003312;28;20041;-84
2021/06/17 22:02:49;;;;;;;9.07;4.80;;;;;;;11.60;64.69;101617.00;4987284;28;20426;-84
2021/06/17 22:05:15;;;;;;;10.40;5.38;;;;;;;11.56;64.53;101618.31;4998597;28;20021;-84
2021/06/17 22:07:41;;;;;;;11.13;5.07;;;;;;;11.55;64.11;101619.31;4986467;28;20021;-84
2021/06/17 22:10:07;;;;;;;9.27;4.75;;;;;;;11.45;64.01;101604.13;5001735;28;20029;-84
2021/06/17 22:12:33;;;;;;;9.68;5.00;;;;;;;11.49;64.15;101628.91;4996839;28;20036;-86
2021/06/17 22:14:58;;;;;;;9.18;4.65;;;;;;;11.35;64.80;101616.00;5019592;28;20018;-84
2021/06/17 22:17:24;;;;;;;8.05;4.20;;;;;;;11.15;64.82;101593.88;5002058;28;20036;-85
2021/06/17 22:19:49;;;;;;;8.13;4.13;;;;;;;11.25;64.47;101635.00;5010629;28;20421;-85
2021/06/17 22:22:14;;;;;;;6.82;4.22;;;;;;;10.90;63.96;101593.72;4992367;28;20100;-86
2021/06/17 22:24:40;;;;;;;7.90;4.47;;;;;;;11.07;64.61;101629.66;5007199;28;20083;-84
2021/06/17 22:27:06;;;;;;;8.40;4.25;;;;;;;11.07;64.55;101636.88;5002961;28;20036;-85
2021/06/17 22:29:31;;;;;;;8.18;4.20;;;;;;;10.97;64.80;101626.22;5006265;28;20486;-85
2021/06/17 22:31:57;;;;;;;8.68;4.50;;;;;;;10.76;65.62;101607.72;4991355;28;20028;-85
2021/06/17 22:34:22;;;;;;;8.23;4.20;;;;;;;10.93;66.40;101632.94;5006117;28;20073;-84
2021/06/17 22:36:48;;;;;;;11.02;5.00;;;;;;;10.85;65.68;101628.31;4999993;28;20678;-84
2021/06/17 22:39:14;;;;;;;7.97;4.38;;;;;;;10.93;65.32;101638.31;4987507;28;20046;-84
2021/06/17 22:41:40;;;;;;;8.75;4.32;;;;;;;10.93;65.17;101635.63;4998789;28;20528;-85
2021/06/17 22:44:05;;;;;;;8.65;3.80;;;;;;;10.91;64.72;101626.84;4987355;28;20021;-85
2021/06/17 22:46:31;;;;;;;8.98;4.20;;;;;;;10.89;65.19;101635.06;5004581;28;20150;-84
2021/06/17 22:48:57;;;;;;;9.77;4.30;;;;;;;10.73;65.32;101606.19;4987432;28;20482;-84
2021/06/17 22:51:22;;;;;;;9.40;4.38;;;;;;;10.79;65.88;101626.22;5008171;28;20029;-84
2021/06/17 22:53:50;;;;;;;9.88;4.07;;;;;;;10.71;66.49;101632.38;4990712;28;20029;-83
2021/06/17 22:56:16;;;;;;;8.63;4.05;;;;;;;10.66;67.18;101634.69;5001198;28;20018;-85
2021/06/17 22:58:42;;;;;;;11.70;4.15;;;;;;;10.66;67.19;101633.84;4987959;28;20029;-85
2021/06/17 23:01:08;;;;;;;9.88;4.40;;;;;;;10.60;66.74;101621.88;5005015;28;20128;-83
2021/06/17 23:03:35;;;;;;;11.25;5.53;;;;;;;10.60;66.86;101615.66;5004746;28;20084;-84
2021/06/17 23:06:02;;;;;;;12.23;4.57;;;;;;;10.59;66.63;101612.13;5007231;28;20121;-84
2021/06/17 23:08:28;;;;;;;8.80;4.47;;;;;;;10.56;66.76;101629.41;5002217;28;20035;-85
2021/06/17 23:10:54;;;;;;;11.20;4.15;;;;;;;10.48;67.20;101632.03;5022108;28;20030;-84
2021/06/17 23:13:19;;;;;;;10.38;4.85;;;;;;;10.36;67.75;101625.19;5003994;28;20120;-85
2021/06/17 23:15:45;;;;;;;8.15;3.92;;;;;;;10.28;67.67;101619.72;4986035;28;20104;-84
2021/06/17 23:18:11;;;;;;;10.52;4.30;;;;;;;10.10;67.93;101595.50;5007457;28;20044;-83
2021/06/17 23:20:36;;;;;;;8.50;3.83;;;;;;;10.20;67.47;101612.41;5014882;28;20021;-85
2021/06/17 23:23:02;;;;;;;9.75;4.40;;;;;;;10.19;67.70;101612.53;4990210;28;20041;-85
2021/06/17 23:25:27;;;;;;;12.85;5.28;;;;;;;10.05;67.70;101595.94;5000858;28;20036;-84
2021/06/17 23:27:53;;;;;;;12.07;4.60;;;;;;;10.09;67.33;101600.03;5002273;28;20021;-84
2021/06/17 23:30:19;;;;;;;9.38;4.47;;;;;;;10.29;67.34;101629.47;4988576;28;20402;-84
2021/06/17 23:32:46;;;;;;;8.98;4.68;;;;;;;10.28;67.74;101623.25;4996588;28;20021;-84
2021/06/17 23:35:12;;;;;;;8.07;4.32;;;;;;;10.13;67.78;101606.81;5002231;28;20544;-85
2021/06/17 23:37:38;;;;;;;10.65;4.38;;;;;;;10.21;67.94;101629.38;5002967;28;20074;-84
2021/06/17 23:40:06;;;;;;;10.32;4.57;;;;;;;10.20;68.12;101630.38;4988268;28;20120;-85
2021/06/17 23:42:31;;;;;;;11.20;4.13;;;;;;;10.16;67.85;101624.47;5005574;28;20029;-84
2021/06/17 23:44:57;;;;;;;6.80;4.78;;;;;;;10.15;68.43;101629.97;5002678;28;20033;-85
2021/06/17 23:47:23;;;;;;;8.85;4.43;;;;;;;10.10;67.77;101633.13;5004731;28;20329;-85
2021/06/17 23:49:48;;;;;;;7.25;3.92;;;;;;;9.75;68.46;101591.75;5008152;28;20029;-85
2021/06/17 23:52:14;;;;;;;12.13;4.68;;;;;;;9.81;68.23;101614.47;4994741;28;20032;-85
2021/06/17 23:54:39;;;;;;;8.98;4.40;;;;;;;9.79;69.11;101616.47;4993595;28;20390;-85
2021/06/17 23:57:05;;;;;;;13.88;4.63;;;;;;;9.78;69.08;101610.25;4989731;28;20565;-85
2021/06/17 23:59:30;;;;;;;10.93;4.32;;;;;;;9.76;68.92;101614.09;4994063;28;20036;-84
